sensor_id;sensor_type;location;lat;lon;timestamp;pressure;altitude;pressure_sealevel;temperature;humidity
14689;BME280;7432;48.728;9.154;2024-03-02T00:00:23;143218.88;;;5.60;100.00
14689;BME280;7432;48.728;9.154;2024-03-02T00:02:51;143214.03;;;5.58;100.00
14689;BME280;7432;48.728;9.154;2024-03-02T00:05:19;143201.97;;;5.53;100.00
14689;BME280;7432;48.728;9.154;2024-03-02T00:07:52;143214.03;;;5.58;100.00
14689;BME280;7432;48.728;9.154;2024-03-02T00:10:20;143220.03;;;5.60;100.00
14689;BME280;7432;48.728;9.154;2024-03-02T00:12:48;143208.00;;;5.55;100.00
14689;BME280;7432;48.728;9.154;2024-03-02T00:15:39;143216.44;;;5.59;100.00
14689;BME280;7432;48.728;9.154;2024-03-02T00:18:08;143216.44;;;5.59;100.00
14689;BME280;7432;48.728;9.154;2024-03-02T00:20:36;143191.16;;;5.48;100.00
14689;BME280;7432;48.728;9.154;2024-03-02T00:23:04;143186.34;;;5.46;100.00
14689;BME280;7432;48.728;9.154;2024-03-02T00:25:37;143191.16;;;5.48;100.00
14689;BME280;7432;48.728;9.154;2024-03-02T00:28:04;143192.38;;;5.49;100.00
14689;BME280;7432;48.728;9.154;2024-03-02T00:30:54;143201.97;;;5.53;100.00
14689;BME280;7432;48.728;9.154;2024-03-02T00:33:23;143193.56;;;5.49;100.00
14689;BME280;7432;48.728;9.154;2024-03-02T00:35:50;143195.97;;;5.50;100.00
14689;BME280;7432;48.728;9.154;2024-03-02T00:38:16;143188.72;;;5.47;100.00
14689;BME280;7432;48.728;9.154;2024-03-02T00:40:43;143181.47;;;5.44;100.00
14689;BME280;7432;48.728;9.154;2024-03-02T00:43:38;143180.31;;;5.44;100.00
14689;BME280;7432;48.728;9.154;2024-03-02T00:46:04;143188.72;;;5.47;100.00
14689;BME280;7432;48.728;9.154;2024-03-02T00:48:32;143201.97;;;5.53;99.73
14689;BME280;7432;48.728;9.154;2024-03-02T00:51:01;143200.75;;;5.52;99.55
14689;BME280;7432;48.728;9.154;2024-03-02T00:53:29;143193.56;;;5.49;99.55
14689;BME280;7432;48.728;9.154;2024-03-02T00:55:56;143198.38;;;5.51;99.30
14689;BME280;7432;48.728;9.154;2024-03-02T00:58:23;143206.78;;;5.55;98.79
14689;BME280;7432;48.728;9.154;2024-03-02T01:00:49;143209.22;;;5.56;99.04
14689;BME280;7432;48.728;9.154;2024-03-02T01:03:16;143201.97;;;5.53;99.50
14689;BME280;7432;48.728;9.154;2024-03-02T01:05:45;143200.75;;;5.52;99.26
14689;BME280;7432;48.728;9.154;2024-03-02T01:08:11;143198.38;;;5.51;99.16
14689;BME280;7432;48.728;9.154;2024-03-02T01:10:38;143187.50;;;5.47;100.00
14689;BME280;7432;48.728;9.154;2024-03-02T01:13:04;143186.34;;;5.46;99.34
14689;BME280;7432;48.728;9.154;2024-03-02T01:15:31;143176.69;;;5.42;99.97
14689;BME280;7432;48.728;9.154;2024-03-02T01:17:58;143179.09;;;5.43;99.05
14689;BME280;7432;48.728;9.154;2024-03-02T01:20:24;143173.09;;;5.41;98.93
14689;BME280;7432;48.728;9.154;2024-03-02T01:22:52;143162.22;;;5.36;99.60
14689;BME280;7432;48.728;9.154;2024-03-02T01:25:18;143176.69;;;5.42;99.41
14689;BME280;7432;48.728;9.154;2024-03-02T01:27:45;143167.06;;;5.38;99.83
14689;BME280;7432;48.728;9.154;2024-03-02T01:30:11;143161.00;;;5.35;99.73
14689;BME280;7432;48.728;9.154;2024-03-02T01:32:38;143159.81;;;5.35;99.54
14689;BME280;7432;48.728;9.154;2024-03-02T01:35:05;143157.41;;;5.34;99.29
14689;BME280;7432;48.728;9.154;2024-03-02T01:37:32;143147.78;;;5.30;99.61
14689;BME280;7432;48.728;9.154;2024-03-02T01:39:59;143129.69;;;5.22;99.08
14689;BME280;7432;48.728;9.154;2024-03-02T01:42:26;143117.63;;;5.17;99.78
14689;BME280;7432;48.728;9.154;2024-03-02T01:44:52;143092.34;;;5.07;100.00
14689;BME280;7432;48.728;9.154;2024-03-02T01:47:18;143075.50;;;5.00;100.00
14689;BME280;7432;48.728;9.154;2024-03-02T01:49:45;143057.41;;;4.92;100.00
14689;BME280;7432;48.728;9.154;2024-03-02T01:52:11;143049.00;;;4.89;100.00
14689;BME280;7432;48.728;9.154;2024-03-02T01:54:37;143038.13;;;4.84;100.00
14689;BME280;7432;48.728;9.154;2024-03-02T01:57:05;143030.91;;;4.81;100.00
14689;BME280;7432;48.728;9.154;2024-03-02T01:59:32;143016.50;;;4.75;100.00
14689;BME280;7432;48.728;9.154;2024-03-02T02:01:58;143015.28;;;4.74;100.00
14689;BME280;7432;48.728;9.154;2024-03-02T02:04:25;142999.59;;;4.68;100.00
14689;BME280;7432;48.728;9.154;2024-03-02T02:06:53;142988.78;;;4.63;100.00
14689;BME280;7432;48.728;9.154;2024-03-02T02:09:19;142971.91;;;4.56;100.00
14689;BME280;7432;48.728;9.154;2024-03-02T02:11:46;142964.72;;;4.53;100.00
14689;BME280;7432;48.728;9.154;2024-03-02T02:14:13;142964.72;;;4.53;100.00
14689;BME280;7432;48.728;9.154;2024-03-02T02:16:40;142940.59;;;4.43;100.00
14689;BME280;7432;48.728;9.154;2024-03-02T02:19:06;142932.22;;;4.40;100.00
14689;BME280;7432;48.728;9.154;2024-03-02T02:21:34;142937.00;;;4.42;100.00
14689;BME280;7432;48.728;9.154;2024-03-02T02:24:00;142920.13;;;4.35;100.00
14689;BME280;7432;48.728;9.154;2024-03-02T02:26:28;142904.50;;;4.28;100.00
14689;BME280;7432;48.728;9.154;2024-03-02T02:28:55;142909.31;;;4.30;100.00
14689;BME280;7432;48.728;9.154;2024-03-02T02:31:21;142903.31;;;4.28;100.00
14689;BME280;7432;48.728;9.154;2024-03-02T02:33:47;142894.84;;;4.24;100.00
14689;BME280;7432;48.728;9.154;2024-03-02T02:36:14;142876.81;;;4.16;100.00
14689;BME280;7432;48.728;9.154;2024-03-02T02:38:44;142866.00;;;4.12;100.00
14689;BME280;7432;48.728;9.154;2024-03-02T02:41:11;142856.34;;;4.08;100.00
14689;BME280;7432;48.728;9.154;2024-03-02T02:43:38;142840.72;;;4.01;100.00
14689;BME280;7432;48.728;9.154;2024-03-02T02:46:05;142827.50;;;3.96;100.00
14689;BME280;7432;48.728;9.154;2024-03-02T02:48:31;142814.25;;;3.90;100.00
14689;BME280;7432;48.728;9.154;2024-03-02T02:50:57;142823.84;;;3.94;100.00
14689;BME280;7432;48.728;9.154;2024-03-02T02:53:24;142819.06;;;3.92;100.00
14689;BME280;7432;48.728;9.154;2024-03-02T02:55:51;142825.06;;;3.95;100.00
14689;BME280;7432;48.728;9.154;2024-03-02T02:58:18;142813.03;;;3.90;100.00
14689;BME280;7432;48.728;9.154;2024-03-02T03:00:44;142816.63;;;3.91;100.00
14689;BME280;7432;48.728;9.154;2024-03-02T03:03:10;142815.41;;;3.91;100.00
14689;BME280;7432;48.728;9.154;2024-03-02T03:05:37;142819.06;;;3.92;100.00
14689;BME280;7432;48.728;9.154;2024-03-02T03:08:04;142808.25;;;3.88;100.00
14689;BME280;7432;48.728;9.154;2024-03-02T03:10:30;142792.59;;;3.81;100.00
14689;BME280;7432;48.728;9.154;2024-03-02T03:12:58;142778.13;;;3.75;100.00
14689;BME280;7432;48.728;9.154;2024-03-02T03:15:24;142772.13;;;3.73;100.00
14689;BME280;7432;48.728;9.154;2024-03-02T03:17:50;142776.91;;;3.75;100.00
14689;BME280;7432;48.728;9.154;2024-03-02T03:20:17;142778.13;;;3.75;100.00
14689;BME280;7432;48.728;9.154;2024-03-02T03:22:43;142780.56;;;3.76;100.00
14689;BME280;7432;48.728;9.154;2024-03-02T03:25:09;142770.91;;;3.72;100.00
14689;BME280;7432;48.728;9.154;2024-03-02T03:27:36;142756.50;;;3.66;100.00
14689;BME280;7432;48.728;9.154;2024-03-02T03:30:05;142754.09;;;3.65;100.00
14689;BME280;7432;48.728;9.154;2024-03-02T03:32:32;142748.06;;;3.63;100.00
14689;BME280;7432;48.728;9.154;2024-03-02T03:34:58;142736.06;;;3.57;100.00
14689;BME280;7432;48.728;9.154;2024-03-02T03:37:24;142746.88;;;3.62;100.00
14689;BME280;7432;48.728;9.154;2024-03-02T03:39:57;142734.84;;;3.57;100.00
14689;BME280;7432;48.728;9.154;2024-03-02T03:42:24;142736.06;;;3.57;100.00
14689;BME280;7432;48.728;9.154;2024-03-02T03:44:50;142734.84;;;3.57;100.00
14689;BME280;7432;48.728;9.154;2024-03-02T03:47:18;142745.66;;;3.62;100.00
14689;BME280;7432;48.728;9.154;2024-03-02T03:49:45;142732.41;;;3.56;100.00
14689;BME280;7432;48.728;9.154;2024-03-02T03:52:11;142734.84;;;3.57;100.00
14689;BME280;7432;48.728;9.154;2024-03-02T03:54:38;142737.22;;;3.58;100.00
14689;BME280;7432;48.728;9.154;2024-03-02T03:57:04;142725.19;;;3.53;100.00
14689;BME280;7432;48.728;9.154;2024-03-02T03:59:30;142731.19;;;3.55;100.00
14689;BME280;7432;48.728;9.154;2024-03-02T04:01:57;142731.19;;;3.55;100.00
14689;BME280;7432;48.728;9.154;2024-03-02T04:04:24;142730.03;;;3.55;100.00
14689;BME280;7432;48.728;9.154;2024-03-02T04:06:51;142717.97;;;3.50;100.00
14689;BME280;7432;48.728;9.154;2024-03-02T04:09:17;142699.94;;;3.42;100.00
14689;BME280;7432;48.728;9.154;2024-03-02T04:11:43;142702.34;;;3.43;100.00
14689;BME280;7432;48.728;9.154;2024-03-02T04:14:10;142699.94;;;3.42;100.00
14689;BME280;7432;48.728;9.154;2024-03-02T04:16:37;142725.19;;;3.53;100.00
14689;BME280;7432;48.728;9.154;2024-03-02T04:19:04;142715.59;;;3.49;100.00
14689;BME280;7432;48.728;9.154;2024-03-02T04:21:32;142704.72;;;3.44;100.00
14689;BME280;7432;48.728;9.154;2024-03-02T04:23:58;142693.94;;;3.40;100.00
14689;BME280;7432;48.728;9.154;2024-03-02T04:26:24;142686.69;;;3.37;100.00
14689;BME280;7432;48.728;9.154;2024-03-02T04:28:51;142675.91;;;3.32;100.00
14689;BME280;7432;48.728;9.154;2024-03-02T04:31:17;142687.91;;;3.37;100.00
14689;BME280;7432;48.728;9.154;2024-03-02T04:33:43;142685.50;;;3.36;100.00
14689;BME280;7432;48.728;9.154;2024-03-02T04:36:10;142679.47;;;3.34;100.00
14689;BME280;7432;48.728;9.154;2024-03-02T04:38:38;142685.50;;;3.36;100.00
14689;BME280;7432;48.728;9.154;2024-03-02T04:41:05;142671.09;;;3.30;100.00
14689;BME280;7432;48.728;9.154;2024-03-02T04:43:32;142669.88;;;3.30;100.00
14689;BME280;7432;48.728;9.154;2024-03-02T04:45:58;142680.69;;;3.34;100.00
14689;BME280;7432;48.728;9.154;2024-03-02T04:48:25;142671.09;;;3.30;100.00
14689;BME280;7432;48.728;9.154;2024-03-02T04:50:51;142680.69;;;3.34;100.00
14689;BME280;7432;48.728;9.154;2024-03-02T04:53:18;142661.44;;;3.26;100.00
14689;BME280;7432;48.728;9.154;2024-03-02T04:55:46;142660.25;;;3.26;100.00
14689;BME280;7432;48.728;9.154;2024-03-02T04:58:35;142654.22;;;3.23;100.00
14689;BME280;7432;48.728;9.154;2024-03-02T05:01:01;142666.25;;;3.28;100.00
14689;BME280;7432;48.728;9.154;2024-03-02T05:03:27;142668.66;;;3.29;100.00
14689;BME280;7432;48.728;9.154;2024-03-02T05:05:54;142648.22;;;3.21;100.00
14689;BME280;7432;48.728;9.154;2024-03-02T05:08:21;142655.44;;;3.24;100.00
14689;BME280;7432;48.728;9.154;2024-03-02T05:10:48;142650.66;;;3.22;100.00
14689;BME280;7432;48.728;9.154;2024-03-02T05:13:15;142648.22;;;3.21;100.00
14689;BME280;7432;48.728;9.154;2024-03-02T05:15:42;142657.88;;;3.25;100.00
14689;BME280;7432;48.728;9.154;2024-03-02T05:18:09;142660.25;;;3.26;100.00
14689;BME280;7432;48.728;9.154;2024-03-02T05:20:35;142663.88;;;3.27;100.00
14689;BME280;7432;48.728;9.154;2024-03-02T05:23:02;142641.00;;;3.18;100.00
14689;BME280;7432;48.728;9.154;2024-03-02T05:25:28;142636.22;;;3.16;100.00
14689;BME280;7432;48.728;9.154;2024-03-02T05:27:56;142635.00;;;3.15;100.00
14689;BME280;7432;48.728;9.154;2024-03-02T05:30:22;142636.22;;;3.16;100.00
14689;BME280;7432;48.728;9.154;2024-03-02T05:32:51;142639.78;;;3.17;100.00
14689;BME280;7432;48.728;9.154;2024-03-02T05:35:17;142648.22;;;3.21;100.00
14689;BME280;7432;48.728;9.154;2024-03-02T05:37:44;142637.41;;;3.16;100.00
14689;BME280;7432;48.728;9.154;2024-03-02T05:40:10;142653.03;;;3.23;100.00
14689;BME280;7432;48.728;9.154;2024-03-02T05:42:38;142647.00;;;3.20;100.00
14689;BME280;7432;48.728;9.154;2024-03-02T05:45:08;142645.81;;;3.20;100.00
14689;BME280;7432;48.728;9.154;2024-03-02T05:47:34;142650.66;;;3.22;100.00
14689;BME280;7432;48.728;9.154;2024-03-02T05:50:00;142655.44;;;3.24;100.00
14689;BME280;7432;48.728;9.154;2024-03-02T05:52:29;142644.63;;;3.19;100.00
14689;BME280;7432;48.728;9.154;2024-03-02T05:54:55;142627.78;;;3.12;100.00
14689;BME280;7432;48.728;9.154;2024-03-02T05:57:21;142633.78;;;3.15;100.00
14689;BME280;7432;48.728;9.154;2024-03-02T06:00:12;142659.03;;;3.25;100.00
14689;BME280;7432;48.728;9.154;2024-03-02T06:02:41;142644.63;;;3.19;100.00
14689;BME280;7432;48.728;9.154;2024-03-02T06:05:08;142631.41;;;3.14;100.00
14689;BME280;7432;48.728;9.154;2024-03-02T06:07:34;142625.41;;;3.11;100.00
14689;BME280;7432;48.728;9.154;2024-03-02T06:10:01;142614.53;;;3.07;100.00
14689;BME280;7432;48.728;9.154;2024-03-02T06:12:27;142619.38;;;3.09;100.00
14689;BME280;7432;48.728;9.154;2024-03-02T06:14:53;142621.75;;;3.10;100.00
14689;BME280;7432;48.728;9.154;2024-03-02T06:17:21;142636.22;;;3.16;100.00
14689;BME280;7432;48.728;9.154;2024-03-02T06:19:47;142642.22;;;3.18;100.00
14689;BME280;7432;48.728;9.154;2024-03-02T06:22:14;142662.66;;;3.27;100.00
14689;BME280;7432;48.728;9.154;2024-03-02T06:24:40;142680.69;;;3.34;100.00
14689;BME280;7432;48.728;9.154;2024-03-02T06:27:07;142699.94;;;3.42;100.00
14689;BME280;7432;48.728;9.154;2024-03-02T06:29:33;142720.38;;;3.51;100.00
14689;BME280;7432;48.728;9.154;2024-03-02T06:32:00;142762.53;;;3.69;100.00
14689;BME280;7432;48.728;9.154;2024-03-02T06:34:27;142769.69;;;3.72;100.00
14689;BME280;7432;48.728;9.154;2024-03-02T06:36:54;142790.16;;;3.80;100.00
14689;BME280;7432;48.728;9.154;2024-03-02T06:39:21;142821.47;;;3.93;100.00
14689;BME280;7432;48.728;9.154;2024-03-02T06:41:47;142860.00;;;4.09;100.00
14689;BME280;7432;48.728;9.154;2024-03-02T06:44:13;142887.63;;;4.21;100.00
14689;BME280;7432;48.728;9.154;2024-03-02T06:46:40;142922.56;;;4.36;100.00
14689;BME280;7432;48.728;9.154;2024-03-02T06:49:06;142957.50;;;4.50;100.00
14689;BME280;7432;48.728;9.154;2024-03-02T06:51:34;142985.16;;;4.62;100.00
14689;BME280;7432;48.728;9.154;2024-03-02T06:54:00;143026.09;;;4.79;100.00
14689;BME280;7432;48.728;9.154;2024-03-02T06:56:26;143070.66;;;4.98;100.00
14689;BME280;7432;48.728;9.154;2024-03-02T06:58:53;143094.78;;;5.08;100.00
14689;BME280;7432;48.728;9.154;2024-03-02T07:01:19;143129.69;;;5.22;100.00
14689;BME280;7432;48.728;9.154;2024-03-02T07:03:46;143165.84;;;5.37;100.00
14689;BME280;7432;48.728;9.154;2024-03-02T07:06:12;143194.75;;;5.50;99.81
14689;BME280;7432;48.728;9.154;2024-03-02T07:08:40;143238.16;;;5.68;98.68
14689;BME280;7432;48.728;9.154;2024-03-02T07:11:06;143256.22;;;5.75;98.24
14689;BME280;7432;48.728;9.154;2024-03-02T07:13:32;143302.06;;;5.94;96.25
14689;BME280;7432;48.728;9.154;2024-03-02T07:15:59;143353.91;;;6.16;96.07
14689;BME280;7432;48.728;9.154;2024-03-02T07:18:47;143440.75;;;6.52;95.71
14689;BME280;7432;48.728;9.154;2024-03-02T07:21:17;143507.09;;;6.80;94.34
14689;BME280;7432;48.728;9.154;2024-03-02T07:23:44;143555.31;;;7.00;92.89
14689;BME280;7432;48.728;9.154;2024-03-02T07:26:11;143555.31;;;7.00;90.59
14689;BME280;7432;48.728;9.154;2024-03-02T07:28:37;143637.41;;;7.35;88.29
14689;BME280;7432;48.728;9.154;2024-03-02T07:31:04;143776.19;;;7.93;87.23
14689;BME280;7432;48.728;9.154;2024-03-02T07:33:31;143817.25;;;8.10;84.36
14689;BME280;7432;48.728;9.154;2024-03-02T07:35:59;143810.00;;;8.07;82.36
14689;BME280;7432;48.728;9.154;2024-03-02T07:38:27;143795.50;;;8.01;82.85
14689;BME280;7432;48.728;9.154;2024-03-02T07:40:55;143726.72;;;7.72;84.65
14689;BME280;7432;48.728;9.154;2024-03-02T07:43:21;143715.88;;;7.67;84.98
14689;BME280;7432;48.728;9.154;2024-03-02T07:45:48;143676.03;;;7.51;83.33
14689;BME280;7432;48.728;9.154;2024-03-02T07:48:15;143725.50;;;7.71;83.23
14689;BME280;7432;48.728;9.154;2024-03-02T07:50:41;143746.03;;;7.80;84.46
14689;BME280;7432;48.728;9.154;2024-03-02T07:53:08;143760.53;;;7.86;83.79
14689;BME280;7432;48.728;9.154;2024-03-02T07:55:34;143771.38;;;7.91;83.91
14689;BME280;7432;48.728;9.154;2024-03-02T07:58:02;143796.72;;;8.01;83.52
14689;BME280;7432;48.728;9.154;2024-03-02T08:00:29;143789.47;;;7.98;82.97
14689;BME280;7432;48.728;9.154;2024-03-02T08:02:55;143835.38;;;8.17;82.87
14689;BME280;7432;48.728;9.154;2024-03-02T08:05:22;143889.78;;;8.40;81.81
14689;BME280;7432;48.728;9.154;2024-03-02T08:07:48;143933.25;;;8.58;81.48
14689;BME280;7432;48.728;9.154;2024-03-02T08:10:18;143922.41;;;8.54;79.76
14689;BME280;7432;48.728;9.154;2024-03-02T08:12:44;144006.97;;;8.89;79.06
14689;BME280;7432;48.728;9.154;2024-03-02T08:15:12;144086.75;;;9.22;76.66
14689;BME280;7432;48.728;9.154;2024-03-02T08:17:39;144225.81;;;9.80;75.59
14689;BME280;7432;48.728;9.154;2024-03-02T08:20:10;144443.56;;;10.71;73.53
14689;BME280;7432;48.728;9.154;2024-03-02T08:22:37;144860.25;;;12.44;68.87
14689;BME280;7432;48.728;9.154;2024-03-02T08:25:04;145445.03;;;14.88;61.36
14689;BME280;7432;48.728;9.154;2024-03-02T08:27:31;145910.50;;;16.81;54.94
14689;BME280;7432;48.728;9.154;2024-03-02T08:29:58;146225.66;;;18.11;50.72
14689;BME280;7432;48.728;9.154;2024-03-02T08:32:25;146482.63;;;19.18;47.77
14689;BME280;7432;48.728;9.154;2024-03-02T08:34:52;146799.56;;;20.49;44.41
14689;BME280;7432;48.728;9.154;2024-03-02T08:37:18;147336.56;;;22.71;39.46
14689;BME280;7432;48.728;9.154;2024-03-02T08:39:45;147733.72;;;24.35;35.80
14689;BME280;7432;48.728;9.154;2024-03-02T08:42:11;147270.56;;;22.43;36.64
14689;BME280;7432;48.728;9.154;2024-03-02T08:44:38;147468.47;;;23.25;35.40
14689;BME280;7432;48.728;9.154;2024-03-02T08:47:04;147819.31;;;24.70;34.39
14689;BME280;7432;48.728;9.154;2024-03-02T08:49:32;148066.50;;;25.72;31.64
14689;BME280;7432;48.728;9.154;2024-03-02T08:51:58;148122.81;;;25.95;30.98
14689;BME280;7432;48.728;9.154;2024-03-02T08:54:24;148390.97;;;27.05;30.12
14689;BME280;7432;48.728;9.154;2024-03-02T08:56:51;148115.47;;;25.92;30.05
14689;BME280;7432;48.728;9.154;2024-03-02T08:59:17;148312.56;;;26.73;29.98
14689;BME280;7432;48.728;9.154;2024-03-02T09:01:44;148225.63;;;26.37;28.86
14689;BME280;7432;48.728;9.154;2024-03-02T09:04:10;148450.97;;;27.30;29.10
14689;BME280;7432;48.728;9.154;2024-03-02T09:06:38;148844.50;;;28.92;28.17
14689;BME280;7432;48.728;9.154;2024-03-02T09:09:04;149049.34;;;29.76;26.36
14689;BME280;7432;48.728;9.154;2024-03-02T09:11:31;149034.63;;;29.70;26.31
14689;BME280;7432;48.728;9.154;2024-03-02T09:13:58;149199.16;;;30.38;25.77
14689;BME280;7432;48.728;9.154;2024-03-02T09:16:24;149431.19;;;31.33;25.36
14689;BME280;7432;48.728;9.154;2024-03-02T09:18:55;149528.22;;;31.73;24.65
14689;BME280;7432;48.728;9.154;2024-03-02T09:21:22;149398.03;;;31.20;24.87
14689;BME280;7432;48.728;9.154;2024-03-02T09:23:50;149433.63;;;31.34;24.76
14689;BME280;7432;48.728;9.154;2024-03-02T09:26:16;149100.91;;;29.98;25.03
14689;BME280;7432;48.728;9.154;2024-03-02T09:28:45;148497.59;;;27.49;27.40
14689;BME280;7432;48.728;9.154;2024-03-02T09:31:11;147677.53;;;24.11;31.77
14689;BME280;7432;48.728;9.154;2024-03-02T09:33:38;146922.72;;;21.00;35.50
14689;BME280;7432;48.728;9.154;2024-03-02T09:36:05;146354.75;;;18.65;40.01
14689;BME280;7432;48.728;9.154;2024-03-02T09:38:32;145774.31;;;16.24;44.90
14689;BME280;7432;48.728;9.154;2024-03-02T09:40:59;145425.63;;;14.79;49.28
14689;BME280;7432;48.728;9.154;2024-03-02T09:43:27;145346.72;;;14.47;50.99
14689;BME280;7432;48.728;9.154;2024-03-02T09:45:53;145380.69;;;14.61;51.49
14689;BME280;7432;48.728;9.154;2024-03-02T09:48:19;145312.72;;;14.33;51.44
14689;BME280;7432;48.728;9.154;2024-03-02T09:50:46;145209.53;;;13.90;52.03
14689;BME280;7432;48.728;9.154;2024-03-02T09:53:14;145123.41;;;13.54;53.94
14689;BME280;7432;48.728;9.154;2024-03-02T09:55:40;145118.56;;;13.52;54.83
14689;BME280;7432;48.728;9.154;2024-03-02T09:58:10;145050.63;;;13.24;55.02
14689;BME280;7432;48.728;9.154;2024-03-02T10:00:37;144982.66;;;12.95;55.68
14689;BME280;7432;48.728;9.154;2024-03-02T10:03:04;144958.44;;;12.85;58.59
14689;BME280;7432;48.728;9.154;2024-03-02T10:05:31;144981.50;;;12.95;56.85
14689;BME280;7432;48.728;9.154;2024-03-02T10:08:00;144960.88;;;12.86;57.02
14689;BME280;7432;48.728;9.154;2024-03-02T10:10:35;144946.31;;;12.80;58.71
14689;BME280;7432;48.728;9.154;2024-03-02T10:13:05;144930.53;;;12.74;57.55
14689;BME280;7432;48.728;9.154;2024-03-02T10:15:33;144941.47;;;12.78;58.13
14689;BME280;7432;48.728;9.154;2024-03-02T10:17:59;144931.75;;;12.74;59.72
14689;BME280;7432;48.728;9.154;2024-03-02T10:20:27;144907.53;;;12.64;57.66
14689;BME280;7432;48.728;9.154;2024-03-02T10:22:54;144854.19;;;12.42;58.79
14689;BME280;7432;48.728;9.154;2024-03-02T10:25:30;144808.16;;;12.23;58.60
14689;BME280;7432;48.728;9.154;2024-03-02T10:27:58;144811.75;;;12.24;59.50
14689;BME280;7432;48.728;9.154;2024-03-02T10:30:24;144776.66;;;12.10;59.51
14689;BME280;7432;48.728;9.154;2024-03-02T10:32:53;144798.44;;;12.19;59.38
14689;BME280;7432;48.728;9.154;2024-03-02T10:35:20;144819.03;;;12.27;59.84
14689;BME280;7432;48.728;9.154;2024-03-02T10:37:47;144829.97;;;12.32;59.59
14689;BME280;7432;48.728;9.154;2024-03-02T10:40:14;144867.53;;;12.47;61.39
14689;BME280;7432;48.728;9.154;2024-03-02T10:42:41;144859.03;;;12.44;59.98
14689;BME280;7432;48.728;9.154;2024-03-02T10:45:09;144879.63;;;12.53;61.09
14689;BME280;7432;48.728;9.154;2024-03-02T10:47:36;144906.31;;;12.64;59.81
14689;BME280;7432;48.728;9.154;2024-03-02T10:50:06;144869.97;;;12.48;61.00
14689;BME280;7432;48.728;9.154;2024-03-02T10:52:34;144857.81;;;12.43;58.44
14689;BME280;7432;48.728;9.154;2024-03-02T10:55:00;144879.63;;;12.53;59.25
14689;BME280;7432;48.728;9.154;2024-03-02T10:57:33;144901.47;;;12.62;59.08
14689;BME280;7432;48.728;9.154;2024-03-02T11:00:03;144920.88;;;12.70;60.73
14689;BME280;7432;48.728;9.154;2024-03-02T11:02:34;144931.75;;;12.74;61.26
14689;BME280;7432;48.728;9.154;2024-03-02T11:05:06;144928.13;;;12.73;59.82
14689;BME280;7432;48.728;9.154;2024-03-02T11:07:36;144890.53;;;12.57;60.59
14689;BME280;7432;48.728;9.154;2024-03-02T11:10:05;144882.09;;;12.54;62.37
14689;BME280;7432;48.728;9.154;2024-03-02T11:12:38;144866.31;;;12.47;61.84
14689;BME280;7432;48.728;9.154;2024-03-02T11:15:09;144879.63;;;12.53;61.17
14689;BME280;7432;48.728;9.154;2024-03-02T11:17:38;144856.63;;;12.43;61.17
14689;BME280;7432;48.728;9.154;2024-03-02T11:20:08;144861.47;;;12.45;61.94
14689;BME280;7432;48.728;9.154;2024-03-02T11:22:35;144863.88;;;12.46;62.92
14689;BME280;7432;48.728;9.154;2024-03-02T11:25:04;144899.03;;;12.61;61.57
14689;BME280;7432;48.728;9.154;2024-03-02T11:28:00;144882.09;;;12.54;60.30
14689;BME280;7432;48.728;9.154;2024-03-02T11:30:49;144895.41;;;12.59;60.46
14689;BME280;7432;48.728;9.154;2024-03-02T11:33:23;144890.53;;;12.57;60.24
14689;BME280;7432;48.728;9.154;2024-03-02T11:35:51;144908.75;;;12.65;61.83
14689;BME280;7432;48.728;9.154;2024-03-02T11:38:17;144901.47;;;12.62;63.86
14689;BME280;7432;48.728;9.154;2024-03-02T11:40:44;144911.16;;;12.66;58.24
14689;BME280;7432;48.728;9.154;2024-03-02T11:43:11;144937.81;;;12.77;56.33
14689;BME280;7432;48.728;9.154;2024-03-02T11:45:37;144952.38;;;12.83;55.49
14689;BME280;7432;48.728;9.154;2024-03-02T11:48:06;144975.38;;;12.92;55.16
14689;BME280;7432;48.728;9.154;2024-03-02T11:50:34;144975.38;;;12.92;54.81
14689;BME280;7432;48.728;9.154;2024-03-02T11:53:05;144959.66;;;12.86;56.05
14689;BME280;7432;48.728;9.154;2024-03-02T11:55:34;144962.03;;;12.87;54.56
14689;BME280;7432;48.728;9.154;2024-03-02T11:58:01;144929.31;;;12.73;57.42
14689;BME280;7432;48.728;9.154;2024-03-02T12:00:28;144922.09;;;12.70;58.87
14689;BME280;7432;48.728;9.154;2024-03-02T12:03:00;144922.09;;;12.70;59.38
14689;BME280;7432;48.728;9.154;2024-03-02T12:05:26;144939.03;;;12.77;55.70
14689;BME280;7432;48.728;9.154;2024-03-02T12:07:55;144962.03;;;12.87;55.44
14689;BME280;7432;48.728;9.154;2024-03-02T12:10:23;145000.88;;;13.03;54.17
14689;BME280;7432;48.728;9.154;2024-03-02T12:12:55;145026.38;;;13.14;53.23
14689;BME280;7432;48.728;9.154;2024-03-02T12:15:23;145032.44;;;13.16;53.01
14689;BME280;7432;48.728;9.154;2024-03-02T12:17:53;145061.53;;;13.28;52.48
14689;BME280;7432;48.728;9.154;2024-03-02T12:20:19;145062.75;;;13.29;53.20
14689;BME280;7432;48.728;9.154;2024-03-02T12:22:46;145059.13;;;13.27;54.08
14689;BME280;7432;48.728;9.154;2024-03-02T12:25:13;145065.19;;;13.30;53.45
14689;BME280;7432;48.728;9.154;2024-03-02T12:27:40;145040.91;;;13.20;53.28
14689;BME280;7432;48.728;9.154;2024-03-02T12:30:07;145071.25;;;13.32;54.41
14689;BME280;7432;48.728;9.154;2024-03-02T12:32:35;145057.91;;;13.27;54.21
14689;BME280;7432;48.728;9.154;2024-03-02T12:35:04;145051.84;;;13.24;55.89
14689;BME280;7432;48.728;9.154;2024-03-02T12:37:30;145054.25;;;13.25;55.24
14689;BME280;7432;48.728;9.154;2024-03-02T12:39:56;145087.00;;;13.39;55.58
14689;BME280;7432;48.728;9.154;2024-03-02T12:42:24;145091.88;;;13.41;56.89
14689;BME280;7432;48.728;9.154;2024-03-02T12:44:52;145118.56;;;13.52;55.69
14689;BME280;7432;48.728;9.154;2024-03-02T12:47:20;145135.53;;;13.59;54.51
14689;BME280;7432;48.728;9.154;2024-03-02T12:49:46;145118.56;;;13.52;53.13
14689;BME280;7432;48.728;9.154;2024-03-02T12:52:13;145091.88;;;13.41;53.25
14689;BME280;7432;48.728;9.154;2024-03-02T12:54:39;145094.25;;;13.42;52.34
14689;BME280;7432;48.728;9.154;2024-03-02T12:57:06;145093.09;;;13.41;53.84
14689;BME280;7432;48.728;9.154;2024-03-02T12:59:32;145083.38;;;13.37;54.28
14689;BME280;7432;48.728;9.154;2024-03-02T13:02:00;145087.00;;;13.39;55.12
14689;BME280;7432;48.728;9.154;2024-03-02T13:04:28;145125.84;;;13.55;54.01